Time;durP1;ratioP1;P1;durP2;ratioP2;P2;SDS_P1;SDS_P2;PMS_P1;PMS_P2;Temp;Humidity;BMP_temperature;BMP_pressure;BME280_temperature;BME280_humidity;BME280_pressure;Samples;Min_cycle;Max_cycle;Signal;HPM_P1;HPM_P2
2023/08/30 00:00:22;;;;;;;21.70;14.68;;;;;;;;;;5053515;28;20029;-65
2023/08/30 00:02:48;;;;;;;27.42;15.27;;;;;;;;;;5035581;28;20487;-66
2023/08/30 00:05:14;;;;;;;25.60;14.35;;;;;;;;;;5052018;28;20053;-66
2023/08/30 00:07:40;;;;;;;29.52;15.40;;;;;;;;;;5052775;28;20438;-66
2023/08/30 00:10:10;;;;;;;26.33;15.43;;;;;;;;;;5052084;28;20049;-66
2023/08/30 00:12:36;;;;;;;34.28;15.43;;;;;;;;;;5052301;28;20083;-66
2023/08/30 00:15:01;;;;;;;24.35;15.27;;;;;;;;;;5033948;28;20477;-66
2023/08/30 00:17:31;;;;;;;29.23;14.55;;;;;;;;;;5050981;28;20041;-66
2023/08/30 00:19:58;;;;;;;29.10;14.30;;;;;;;;;;5017900;28;20037;-66
2023/08/30 00:22:23;;;;;;;26.52;14.85;;;;;;;;;;5034468;28;20040;-66
2023/08/30 00:24:49;;;;;;;29.08;14.93;;;;;;;;;;5050519;28;20398;-66
2023/08/30 00:27:16;;;;;;;28.02;14.23;;;;;;;;;;5034912;28;20148;-66
2023/08/30 00:29:42;;;;;;;26.20;14.93;;;;;;;;;;5052559;28;20121;-66
2023/08/30 00:32:08;;;;;;;25.65;14.55;;;;;;;;;;5036499;28;20087;-67
2023/08/30 00:34:34;;;;;;;30.90;15.38;;;;;;;;;;5051283;28;20139;-66
2023/08/30 00:37:01;;;;;;;22.23;14.35;;;;;;;;;;5050660;28;20040;-67
2023/08/30 00:39:26;;;;;;;26.42;14.57;;;;;;;;;;5034890;28;20049;-67
2023/08/30 00:41:52;;;;;;;26.15;13.63;;;;;;;;;;5036927;28;20540;-67
2023/08/30 00:44:18;;;;;;;24.83;13.93;;;;;;;;;;5036748;28;20483;-66
2023/08/30 00:46:43;;;;;;;24.38;13.80;;;;;;;;;;5052743;28;20053;-66
2023/08/30 00:49:10;;;;;;;23.50;13.90;;;;;;;;;;5034620;28;20088;-66
2023/08/30 00:51:36;;;;;;;25.60;13.10;;;;;;;;;;5017994;28;20064;-66
2023/08/30 00:54:02;;;;;;;29.77;12.77;;;;;;;;;;5034645;28;20029;-66
2023/08/30 00:56:27;;;;;;;28.60;12.52;;;;;;;;;;5035442;28;20128;-66
2023/08/30 00:58:54;;;;;;;25.63;12.48;;;;;;;;;;5035865;28;20033;-67
2023/08/30 01:01:19;;;;;;;30.90;13.15;;;;;;;;;;5052884;28;20391;-67
2023/08/30 01:03:45;;;;;;;23.80;12.90;;;;;;;;;;5051529;28;20037;-67
2023/08/30 01:06:11;;;;;;;23.90;12.70;;;;;;;;;;5051366;28;20143;-66
2023/08/30 01:08:37;;;;;;;24.58;13.02;;;;;;;;;;5051001;28;20103;-66
2023/08/30 01:11:10;;;;;;;21.73;12.43;;;;;;;;;;5050860;28;20051;-66
2023/08/30 01:13:39;;;;;;;24.30;11.98;;;;;;;;;;5034463;28;20032;-66
2023/08/30 01:16:05;;;;;;;25.90;13.23;;;;;;;;;;5050813;28;20044;-66
2023/08/30 01:18:32;;;;;;;21.63;12.52;;;;;;;;;;5051346;28;20040;-66
2023/08/30 01:21:01;;;;;;;19.73;11.57;;;;;;;;;;5052192;28;20059;-66
2023/08/30 01:23:34;;;;;;;22.75;11.60;;;;;;;;;;5052143;28;20115;-66
2023/08/30 01:26:17;;;;;;;19.17;12.00;;;;;;;;;;5033647;28;20045;-67
2023/08/30 01:28:44;;;;;;;21.15;12.07;;;;;;;;;;5034404;28;20051;-67
2023/08/30 01:31:12;;;;;;;20.70;12.23;;;;;;;;;;5050582;28;20370;-66
2023/08/30 01:33:39;;;;;;;17.17;11.98;;;;;;;;;;5017655;28;20079;-66
2023/08/30 01:36:05;;;;;;;19.17;12.13;;;;;;;;;;5036008;28;20041;-66
2023/08/30 01:38:32;;;;;;;15.27;11.63;;;;;;;;;;5052913;28;20049;-68
2023/08/30 01:40:59;;;;;;;19.20;12.68;;;;;;;;;;5050933;28;20463;-66
2023/08/30 01:43:28;;;;;;;21.45;12.13;;;;;;;;;;5049866;28;20111;-66
2023/08/30 01:45:56;;;;;;;19.02;11.98;;;;;;;;;;5032963;28;20049;-66
2023/08/30 01:48:23;;;;;;;24.10;13.18;;;;;;;;;;5049565;28;20045;-66
2023/08/30 01:50:49;;;;;;;18.88;12.25;;;;;;;;;;5049341;28;20078;-66
2023/08/30 01:53:15;;;;;;;19.25;12.45;;;;;;;;;;5049441;28;20045;-66
2023/08/30 01:55:42;;;;;;;20.38;12.13;;;;;;;;;;5049288;28;20040;-66
2023/08/30 01:58:08;;;;;;;21.75;12.60;;;;;;;;;;5016420;28;20040;-66
2023/08/30 02:00:37;;;;;;;23.77;12.10;;;;;;;;;;5016701;28;20238;-66
2023/08/30 02:03:09;;;;;;;18.60;11.60;;;;;;;;;;5049407;28;20357;-66
2023/08/30 02:05:35;;;;;;;16.73;11.70;;;;;;;;;;5033150;28;20057;-65
2023/08/30 02:08:07;;;;;;;20.10;11.80;;;;;;;;;;5033757;28;20041;-66
2023/08/30 02:10:34;;;;;;;18.13;11.88;;;;;;;;;;5050184;28;20466;-65
2023/08/30 02:13:00;;;;;;;16.23;11.88;;;;;;;;;;5050585;28;20191;-65
2023/08/30 02:15:26;;;;;;;18.83;11.98;;;;;;;;;;5033462;28;20132;-66
2023/08/30 02:17:52;;;;;;;21.23;12.18;;;;;;;;;;5050460;28;20609;-66
2023/08/30 02:20:18;;;;;;;18.02;12.07;;;;;;;;;;5050146;28;20029;-66
2023/08/30 02:22:44;;;;;;;20.02;11.63;;;;;;;;;;5051205;28;20041;-66
2023/08/30 02:25:10;;;;;;;19.75;11.80;;;;;;;;;;5050144;28;20514;-66
2023/08/30 02:27:35;;;;;;;16.63;11.25;;;;;;;;;;5051010;28;20131;-66
2023/08/30 02:30:02;;;;;;;20.42;11.85;;;;;;;;;;5051550;28;20558;-66
2023/08/30 02:32:32;;;;;;;;;;;;;;;;;;5035017;28;20064;-66
2023/08/30 02:34:58;;;;;;;17.73;11.73;;;;;;;;;;5050433;28;19912;-66
2023/08/30 02:37:24;;;;;;;23.58;12.00;;;;;;;;;;5050578;28;20110;-66
2023/08/30 02:39:50;;;;;;;17.58;12.02;;;;;;;;;;5053880;28;20113;-66
2023/08/30 02:42:16;;;;;;;19.65;12.55;;;;;;;;;;5037173;28;20098;-66
2023/08/30 02:44:42;;;;;;;17.35;11.10;;;;;;;;;;5053745;28;20057;-66
2023/08/30 02:47:08;;;;;;;16.50;12.02;;;;;;;;;;5054019;28;20479;-66
2023/08/30 02:49:34;;;;;;;19.02;12.70;;;;;;;;;;5021423;28;20029;-67
2023/08/30 02:52:00;;;;;;;20.50;12.65;;;;;;;;;;5037537;28;20572;-66
2023/08/30 02:54:26;;;;;;;24.60;13.05;;;;;;;;;;5053934;28;20036;-66
2023/08/30 02:56:52;;;;;;;20.73;12.95;;;;;;;;;;5037568;28;20041;-66
2023/08/30 02:59:18;;;;;;;19.52;12.48;;;;;;;;;;5037885;28;20064;-67
2023/08/30 03:01:44;;;;;;;20.45;12.07;;;;;;;;;;5053764;28;20400;-67
2023/08/30 03:04:12;;;;;;;19.42;11.38;;;;;;;;;;5036965;28;20037;-68
2023/08/30 03:06:38;;;;;;;18.42;10.90;;;;;;;;;;5055354;28;20161;-67
2023/08/30 03:09:06;;;;;;;19.05;11.38;;;;;;;;;;5023237;28;20479;-68
2023/08/30 03:11:34;;;;;;;18.60;11.55;;;;;;;;;;5037870;28;20083;-67
2023/08/30 03:13:59;;;;;;;17.77;12.27;;;;;;;;;;5053314;28;20487;-68
2023/08/30 03:16:26;;;;;;;22.23;12.05;;;;;;;;;;5053530;28;20048;-68
2023/08/30 03:18:53;;;;;;;16.60;11.48;;;;;;;;;;5020188;28;20047;-68
2023/08/30 03:21:19;;;;;;;17.98;10.85;;;;;;;;;;5053107;28;20051;-67
2023/08/30 03:23:45;;;;;;;17.08;10.85;;;;;;;;;;5053080;28;20037;-68
2023/08/30 03:26:11;;;;;;;19.90;11.57;;;;;;;;;;5019661;28;20045;-68
2023/08/30 03:28:37;;;;;;;17.98;11.45;;;;;;;;;;5053299;28;20032;-67
2023/08/30 03:31:16;;;;;;;17.98;12.07;;;;;;;;;;5036686;28;20258;-67
2023/08/30 03:33:42;;;;;;;17.42;12.48;;;;;;;;;;5054159;28;20040;-69
2023/08/30 03:36:10;;;;;;;18.35;11.02;;;;;;;;;;5053312;28;20041;-67
2023/08/30 03:38:36;;;;;;;19.83;11.65;;;;;;;;;;5036994;28;20097;-69
2023/08/30 03:41:03;;;;;;;20.10;12.30;;;;;;;;;;5036276;28;20139;-68
2023/08/30 03:43:28;;;;;;;14.57;10.60;;;;;;;;;;5036062;28;20068;-67
2023/08/30 03:45:54;;;;;;;16.10;12.00;;;;;;;;;;5052463;28;20053;-67
2023/08/30 03:48:20;;;;;;;17.92;11.88;;;;;;;;;;5053462;28;20032;-67
2023/08/30 03:50:46;;;;;;;15.65;11.60;;;;;;;;;;5035146;28;20033;-66
2023/08/30 03:53:13;;;;;;;18.33;12.20;;;;;;;;;;5035965;28;20044;-67
2023/08/30 03:55:40;;;;;;;14.63;10.85;;;;;;;;;;5053276;28;20051;-67
2023/08/30 03:58:05;;;;;;;18.33;11.68;;;;;;;;;;5051608;28;20033;-67
2023/08/30 04:00:31;;;;;;;17.80;12.43;;;;;;;;;;5049902;28;20083;-67
2023/08/30 04:02:57;;;;;;;19.20;11.88;;;;;;;;;;5050558;28;20079;-67
2023/08/30 04:05:23;;;;;;;16.27;11.45;;;;;;;;;;5051982;28;20049;-67
2023/08/30 04:07:50;;;;;;;22.33;11.98;;;;;;;;;;5054180;28;20159;-68
2023/08/30 04:10:17;;;;;;;17.88;11.40;;;;;;;;;;5052486;28;20032;-69
2023/08/30 04:12:44;;;;;;;16.08;11.68;;;;;;;;;;5054671;28;20047;-67
2023/08/30 04:15:13;;;;;;;15.45;11.25;;;;;;;;;;5019584;28;20029;-67
2023/08/30 04:17:39;;;;;;;14.70;11.15;;;;;;;;;;5033672;28;20029;-67
2023/08/30 04:20:13;;;;;;;17.83;10.82;;;;;;;;;;5003847;28;20037;-67
2023/08/30 04:22:40;;;;;;;15.00;11.05;;;;;;;;;;5016302;28;20057;-67
2023/08/30 04:25:09;;;;;;;15.93;11.57;;;;;;;;;;4983201;28;20072;-66
2023/08/30 04:27:36;;;;;;;14.02;10.70;;;;;;;;;;4999326;28;20041;-66
2023/08/30 04:30:02;;;;;;;15.88;10.95;;;;;;;;;;5010910;28;20026;-67
2023/08/30 04:32:31;;;;;;;16.55;10.73;;;;;;;;;;4991649;28;20385;-66
2023/08/30 04:34:57;;;;;;;15.43;10.38;;;;;;;;;;4988377;28;20036;-67
2023/08/30 04:37:22;;;;;;;19.27;11.23;;;;;;;;;;5004851;28;20056;-66
2023/08/30 04:39:49;;;;;;;19.90;11.40;;;;;;;;;;4993194;28;20042;-67
2023/08/30 04:42:15;;;;;;;14.88;10.65;;;;;;;;;;4976360;28;20145;-67
2023/08/30 04:44:40;;;;;;;16.95;10.75;;;;;;;;;;4991304;28;20080;-67
2023/08/30 04:47:07;;;;;;;14.57;10.35;;;;;;;;;;4995913;28;20045;-67
2023/08/30 04:49:34;;;;;;;15.40;9.85;;;;;;;;;;5012530;28;20041;-67
2023/08/30 04:52:01;;;;;;;14.20;10.57;;;;;;;;;;5013470;28;20594;-67
2023/08/30 04:54:28;;;;;;;15.63;10.02;;;;;;;;;;5045259;28;20043;-66
2023/08/30 04:56:54;;;;;;;14.45;9.98;;;;;;;;;;5069917;28;20387;-67
2023/08/30 04:59:20;;;;;;;13.57;8.98;;;;;;;;;;5030699;28;20078;-67
2023/08/30 05:01:49;;;;;;;17.85;9.85;;;;;;;;;;5034426;28;20037;-67
2023/08/30 05:04:17;;;;;;;13.15;9.18;;;;;;;;;;5030312;28;20055;-67
2023/08/30 05:06:43;;;;;;;13.90;10.40;;;;;;;;;;5009966;28;20537;-67
2023/08/30 05:09:09;;;;;;;14.18;9.65;;;;;;;;;;5048161;28;20041;-68
2023/08/30 05:11:37;;;;;;;16.58;10.45;;;;;;;;;;5063516;28;20466;-67
2023/08/30 05:14:03;;;;;;;13.40;9.13;;;;;;;;;;5063991;28;20112;-68
2023/08/30 05:16:30;;;;;;;13.70;9.60;;;;;;;;;;5036646;28;20043;-68
2023/08/30 05:18:55;;;;;;;11.07;8.98;;;;;;;;;;5033882;28;20041;-68
2023/08/30 05:21:21;;;;;;;11.30;9.43;;;;;;;;;;5026091;28;20464;-70
2023/08/30 05:23:48;;;;;;;13.32;10.25;;;;;;;;;;5045209;28;20041;-66
2023/08/30 05:26:16;;;;;;;17.88;10.52;;;;;;;;;;5027745;28;20053;-68
2023/08/30 05:28:43;;;;;;;14.48;8.82;;;;;;;;;;5035610;28;20029;-67
2023/08/30 05:31:09;;;;;;;12.85;10.10;;;;;;;;;;5040289;28;20072;-66
2023/08/30 05:34:10;;;;;;;11.95;9.27;;;;;;;;;;4992348;28;20033;-68
2023/08/30 05:37:02;;;;;;;13.32;9.90;;;;;;;;;;4994096;28;20037;-68
2023/08/30 05:39:51;;;;;;;14.27;8.52;;;;;;;;;;4993858;28;20128;-68
2023/08/30 05:42:17;;;;;;;11.85;8.43;;;;;;;;;;4976065;28;20132;-69
2023/08/30 05:44:42;;;;;;;10.52;8.10;;;;;;;;;;4992358;28;20053;-68
2023/08/30 05:47:14;;;;;;;14.50;7.93;;;;;;;;;;4978539;28;20464;-69
2023/08/30 05:49:40;;;;;;;10.70;6.90;;;;;;;;;;4995108;28;20348;-68
2023/08/30 05:52:06;;;;;;;9.90;7.38;;;;;;;;;;4978867;28;20388;-68
2023/08/30 05:54:33;;;;;;;10.20;6.88;;;;;;;;;;4978291;28;20033;-68
2023/08/30 05:57:00;;;;;;;13.73;6.22;;;;;;;;;;4978364;28;20100;-70
2023/08/30 05:59:27;;;;;;;10.75;7.40;;;;;;;;;;4993844;28;20124;-68
2023/08/30 06:01:54;;;;;;;10.85;6.93;;;;;;;;;;4994259;28;20041;-68
2023/08/30 06:04:20;;;;;;;8.68;5.82;;;;;;;;;;5013806;28;20041;-67
2023/08/30 06:06:46;;;;;;;12.23;6.50;;;;;;;;;;5031324;28;20479;-68
2023/08/30 06:09:14;;;;;;;10.45;6.40;;;;;;;;;;5032123;28;20037;-68
2023/08/30 06:11:40;;;;;;;11.07;6.32;;;;;;;;;;5032073;28;20132;-69
2023/08/30 06:14:06;;;;;;;12.25;6.13;;;;;;;;;;5050908;28;20087;-68
2023/08/30 06:16:31;;;;;;;7.88;5.75;;;;;;;;;;5034044;28;20040;-68
2023/08/30 06:18:58;;;;;;;11.40;5.82;;;;;;;;;;5034376;28;20037;-68
2023/08/30 06:21:25;;;;;;;11.90;5.25;;;;;;;;;;5017428;28;20051;-69
2023/08/30 06:23:51;;;;;;;10.40;5.55;;;;;;;;;;5051087;28;20048;-68
2023/08/30 06:26:18;;;;;;;12.00;5.10;;;;;;;;;;5035851;28;20057;-68
2023/08/30 06:28:44;;;;;;;9.88;4.90;;;;;;;;;;5033873;28;20067;-68
2023/08/30 06:31:10;;;;;;;6.10;5.15;;;;;;;;;;5052055;28;20044;-68
2023/08/30 06:33:36;;;;;;;10.13;5.10;;;;;;;;;;5053030;28;20041;-69
2023/08/30 06:36:02;;;;;;;8.02;5.25;;;;;;;;;;5036780;28;20132;-68
2023/08/30 06:38:29;;;;;;;13.02;5.32;;;;;;;;;;5053139;28;20051;-68
2023/08/30 06:40:57;;;;;;;6.75;4.90;;;;;;;;;;5053417;28;20040;-68
2023/08/30 06:43:22;;;;;;;6.07;4.82;;;;;;;;;;5036464;28;20053;-68
2023/08/30 06:45:48;;;;;;;9.57;4.60;;;;;;;;;;5053791;28;20122;-68
2023/08/30 06:48:16;;;;;;;7.45;4.45;;;;;;;;;;5054382;28;20116;-68
2023/08/30 06:50:41;;;;;;;11.85;4.65;;;;;;;;;;5039685;28;20037;-69
2023/08/30 06:53:09;;;;;;;5.38;4.30;;;;;;;;;;5022945;28;20048;-69
2023/08/30 06:55:36;;;;;;;8.82;4.53;;;;;;;;;;5038968;28;20083;-68
2023/08/30 06:58:02;;;;;;;7.70;4.97;;;;;;;;;;5018052;28;20060;-68
2023/08/30 07:00:28;;;;;;;6.82;5.07;;;;;;;;;;5017656;28;20041;-68
2023/08/30 07:02:54;;;;;;;10.80;4.78;;;;;;;;;;5034343;28;20042;-68
2023/08/30 07:05:23;;;;;;;7.43;4.63;;;;;;;;;;5033934;28;20041;-70
2023/08/30 07:07:49;;;;;;;7.88;4.95;;;;;;;;;;5017192;28;20052;-68
2023/08/30 07:10:15;;;;;;;8.63;4.90;;;;;;;;;;5017395;28;20131;-68
2023/08/30 07:12:42;;;;;;;8.60;4.85;;;;;;;;;;5017162;28;20164;-69
2023/08/30 07:15:08;;;;;;;8.88;5.47;;;;;;;;;;5034585;28;20119;-69
2023/08/30 07:17:35;;;;;;;9.35;5.40;;;;;;;;;;5017159;28;20034;-68
2023/08/30 07:20:04;;;;;;;12.25;5.18;;;;;;;;;;5033414;28;20383;-68
2023/08/30 07:22:30;;;;;;;11.13;5.35;;;;;;;;;;5034319;28;20029;-68
2023/08/30 07:24:56;;;;;;;13.75;4.97;;;;;;;;;;5032095;28;20049;-68
2023/08/30 07:27:22;;;;;;;8.52;4.25;;;;;;;;;;5034385;28;20111;-68
2023/08/30 07:29:47;;;;;;;8.05;4.40;;;;;;;;;;5017074;28;20124;-68
2023/08/30 07:32:13;;;;;;;5.97;4.55;;;;;;;;;;5000993;28;20141;-67
2023/08/30 07:34:39;;;;;;;8.43;4.88;;;;;;;;;;5033298;28;20033;-67
2023/08/30 07:37:05;;;;;;;6.75;4.22;;;;;;;;;;5034300;28;20038;-67
2023/08/30 07:39:31;;;;;;;5.47;3.83;;;;;;;;;;5016658;28;20048;-67
2023/08/30 07:41:57;;;;;;;7.28;4.50;;;;;;;;;;5016750;28;20388;-67
2023/08/30 07:44:23;;;;;;;7.60;4.70;;;;;;;;;;5033303;28;20065;-67
2023/08/30 07:46:48;;;;;;;8.50;4.57;;;;;;;;;;5034528;28;20052;-66
2023/08/30 07:49:14;;;;;;;9.70;3.95;;;;;;;;;;5000930;28;20072;-68
2023/08/30 07:51:40;;;;;;;8.52;4.25;;;;;;;;;;5016504;28;20029;-68
2023/08/30 07:54:05;;;;;;;6.30;3.72;;;;;;;;;;5034050;28;20063;-68
2023/08/30 07:56:31;;;;;;;12.05;4.18;;;;;;;;;;5016004;28;20041;-68
2023/08/30 07:58:57;;;;;;;14.98;4.50;;;;;;;;;;5033774;28;20037;-68
2023/08/30 08:01:23;;;;;;;9.75;4.22;;;;;;;;;;5001436;28;20041;-67
2023/08/30 08:03:49;;;;;;;6.53;3.78;;;;;;;;;;5042372;28;20040;-68
2023/08/30 08:06:15;;;;;;;12.43;4.97;;;;;;;;;;5044173;28;20383;-68
2023/08/30 08:08:40;;;;;;;12.13;5.10;;;;;;;;;;5024655;28;20044;-68
2023/08/30 08:11:06;;;;;;;7.63;3.70;;;;;;;;;;5027297;28;20039;-68
2023/08/30 08:13:32;;;;;;;11.73;4.00;;;;;;;;;;5028866;28;20047;-68
2023/08/30 08:15:58;;;;;;;7.47;3.85;;;;;;;;;;5028444;28;20124;-68
2023/08/30 08:18:23;;;;;;;10.50;4.00;;;;;;;;;;5045613;28;20059;-68
2023/08/30 08:20:49;;;;;;;9.13;4.25;;;;;;;;;;5054008;28;20064;-69
2023/08/30 08:23:15;;;;;;;8.18;3.95;;;;;;;;;;5053893;28;20041;-68
2023/08/30 08:25:41;;;;;;;10.95;3.78;;;;;;;;;;5052047;28;20103;-68
2023/08/30 08:28:07;;;;;;;7.43;3.70;;;;;;;;;;5002686;28;20107;-68
2023/08/30 08:30:32;;;;;;;9.25;3.90;;;;;;;;;;5051828;28;20025;-68
2023/08/30 08:32:58;;;;;;;6.93;3.65;;;;;;;;;;5035309;28;20047;-68
2023/08/30 08:35:24;;;;;;;12.73;3.55;;;;;;;;;;5052958;28;20369;-68
2023/08/30 08:37:50;;;;;;;10.10;4.35;;;;;;;;;;5035342;28;20032;-69
2023/08/30 08:40:17;;;;;;;8.25;3.65;;;;;;;;;;5019171;28;20033;-68
2023/08/30 08:42:45;;;;;;;10.55;3.72;;;;;;;;;;5052954;28;20395;-69
2023/08/30 08:45:12;;;;;;;6.10;3.30;;;;;;;;;;5051856;28;20046;-68
2023/08/30 08:47:38;;;;;;;9.07;3.50;;;;;;;;;;5051676;28;20111;-69
2023/08/30 08:50:04;;;;;;;10.07;4.32;;;;;;;;;;5052407;28;20062;-69
2023/08/30 08:52:32;;;;;;;6.57;2.88;;;;;;;;;;5053135;28;20460;-69
2023/08/30 08:55:02;;;;;;;15.65;3.90;;;;;;;;;;5036094;28;20047;-68
2023/08/30 08:57:31;;;;;;;7.65;3.28;;;;;;;;;;5051642;28;20454;-69
2023/08/30 08:59:57;;;;;;;7.13;3.03;;;;;;;;;;5051566;28;20063;-68
2023/08/30 09:02:23;;;;;;;5.20;3.08;;;;;;;;;;5014686;28;20072;-68
2023/08/30 09:04:50;;;;;;;6.75;3.40;;;;;;;;;;4993792;28;20029;-69
2023/08/30 09:07:16;;;;;;;8.68;3.40;;;;;;;;;;5025716;28;20125;-69
2023/08/30 09:09:43;;;;;;;8.48;3.47;;;;;;;;;;5013492;28;20068;-69
2023/08/30 09:12:09;;;;;;;9.85;3.60;;;;;;;;;;5026093;28;20037;-69
2023/08/30 09:14:34;;;;;;;9.55;3.30;;;;;;;;;;5026022;28;20039;-69
2023/08/30 09:17:01;;;;;;;11.00;3.83;;;;;;;;;;5041620;28;20029;-70
2023/08/30 09:19:27;;;;;;;14.45;3.40;;;;;;;;;;5025721;28;20132;-69
2023/08/30 09:21:58;;;;;;;6.05;2.78;;;;;;;;;;5039681;28;20077;-68
2023/08/30 09:24:25;;;;;;;8.20;3.25;;;;;;;;;;5015814;28;20064;-70
2023/08/30 09:26:54;;;;;;;7.65;3.03;;;;;;;;;;5040245;28;20045;-69
2023/08/30 09:29:21;;;;;;;7.25;3.17;;;;;;;;;;5026044;28;20021;-68
2023/08/30 09:31:52;;;;;;;5.68;3.20;;;;;;;;;;5052868;28;20037;-69
2023/08/30 09:34:21;;;;;;;4.15;2.80;;;;;;;;;;5002916;28;20033;-69
2023/08/30 09:36:50;;;;;;;6.30;3.00;;;;;;;;;;5050936;28;20037;-68
2023/08/30 09:39:16;;;;;;;8.05;3.10;;;;;;;;;;5034854;28;20045;-69
2023/08/30 09:41:42;;;;;;;8.73;2.95;;;;;;;;;;5070854;28;20113;-69
2023/08/30 09:44:10;;;;;;;7.00;3.22;;;;;;;;;;5038585;28;20495;-69
2023/08/30 09:46:41;;;;;;;6.00;3.40;;;;;;;;;;5055163;28;20067;-69
2023/08/30 09:49:09;;;;;;;9.02;2.80;;;;;;;;;;5072986;28;20352;-69
2023/08/30 09:51:37;;;;;;;14.02;3.28;;;;;;;;;;5055984;28;20064;-69
2023/08/30 09:54:05;;;;;;;8.25;3.22;;;;;;;;;;5040742;28;20158;-68
2023/08/30 09:56:35;;;;;;;10.07;3.50;;;;;;;;;;5039469;28;20039;-68
2023/08/30 09:59:03;;;;;;;7.45;3.38;;;;;;;;;;5023813;28;20036;-69
2023/08/30 10:01:30;;;;;;;11.25;4.00;;;;;;;;;;5057393;28;20032;-69
2023/08/30 10:03:57;;;;;;;8.20;4.72;;;;;;;;;;5040736;28;20344;-67
2023/08/30 10:06:24;;;;;;;6.78;4.20;;;;;;;;;;5057454;28;20499;-69
2023/08/30 10:08:51;;;;;;;7.80;4.10;;;;;;;;;;5057345;28;20036;-67
2023/08/30 10:11:18;;;;;;;11.10;4.28;;;;;;;;;;5040140;28;20028;-67
2023/08/30 10:13:44;;;;;;;10.93;4.20;;;;;;;;;;5054166;28;20049;-67
2023/08/30 10:16:13;;;;;;;9.38;3.78;;;;;;;;;;5052501;28;20052;-66
2023/08/30 10:18:40;;;;;;;;;;;;;;;;;;5052840;28;20037;-67
2023/08/30 10:21:07;;;;;;;9.20;3.80;;;;;;;;;;5054566;28;19935;-67
2023/08/30 10:23:33;;;;;;;7.45;3.78;;;;;;;;;;5057044;28;20045;-68
2023/08/30 10:26:00;;;;;;;5.47;3.53;;;;;;;;;;5059870;28;20052;-67
2023/08/30 10:28:27;;;;;;;7.00;3.40;;;;;;;;;;5074571;28;20044;-66
2023/08/30 10:30:54;;;;;;;8.68;3.35;;;;;;;;;;5041109;28;20054;-67
2023/08/30 10:33:25;;;;;;;10.77;3.63;;;;;;;;;;5057007;28;20032;-71
2023/08/30 10:35:51;;;;;;;7.25;3.30;;;;;;;;;;5056551;28;20098;-68
2023/08/30 10:38:28;;;;;;;8.77;3.17;;;;;;;;;;5039978;28;20032;-67
2023/08/30 10:40:54;;;;;;;9.43;3.58;;;;;;;;;;5073443;28;20228;-69
2023/08/30 10:43:30;;;;;;;7.93;3.10;;;;;;;;;;5022926;28;20075;-67
2023/08/30 10:46:12;;;;;;;8.75;3.35;;;;;;;;;;5016448;28;20203;-70
2023/08/30 10:48:39;;;;;;;5.70;3.38;;;;;;;;;;5016710;28;20360;-69
2023/08/30 10:51:24;;;;;;;9.27;3.05;;;;;;;;;;5016501;28;20065;-69
2023/08/30 10:53:58;;;;;;;6.00;3.30;;;;;;;;;;5016715;28;20128;-69
2023/08/30 10:56:30;;;;;;;7.07;3.67;;;;;;;;;;4982249;28;20042;-68
2023/08/30 10:58:56;;;;;;;8.63;2.90;;;;;;;;;;4999194;28;20487;-68
2023/08/30 11:01:23;;;;;;;5.97;3.47;;;;;;;;;;5016475;28;20079;-69
2023/08/30 11:03:50;;;;;;;8.70;3.30;;;;;;;;;;5016272;28;20048;-70
2023/08/30 11:06:17;;;;;;;6.20;2.90;;;;;;;;;;4999692;28;20053;-70
2023/08/30 11:08:45;;;;;;;6.32;2.90;;;;;;;;;;5032651;28;20475;-69
2023/08/30 11:11:14;;;;;;;6.13;3.03;;;;;;;;;;4996700;28;20042;-69
2023/08/30 11:13:42;;;;;;;12.98;2.90;;;;;;;;;;4980649;28;20137;-69
2023/08/30 11:16:09;;;;;;;7.57;2.90;;;;;;;;;;4999693;28;20057;-68
2023/08/30 11:18:37;;;;;;;7.70;2.90;;;;;;;;;;5032704;28;20049;-69
2023/08/30 11:21:09;;;;;;;7.82;2.67;;;;;;;;;;4999751;28;20060;-71
2023/08/30 11:23:36;;;;;;;5.88;3.00;;;;;;;;;;4999596;28;20034;-68
2023/08/30 11:26:03;;;;;;;6.18;2.60;;;;;;;;;;4999152;28;20063;-68
2023/08/30 11:28:32;;;;;;;7.55;2.55;;;;;;;;;;4999823;28;20040;-69
2023/08/30 11:31:04;;;;;;;9.38;3.00;;;;;;;;;;5032476;28;20049;-67
2023/08/30 11:33:30;;;;;;;10.80;3.60;;;;;;;;;;5032200;28;20037;-67
2023/08/30 11:35:56;;;;;;;7.95;3.20;;;;;;;;;;5016011;28;20046;-67
2023/08/30 11:38:24;;;;;;;6.05;2.92;;;;;;;;;;5031989;28;20141;-70
2023/08/30 11:40:51;;;;;;;8.20;3.55;;;;;;;;;;5015914;28;20049;-69
2023/08/30 11:43:17;;;;;;;7.78;3.30;;;;;;;;;;4999240;28;20037;-68
2023/08/30 11:45:42;;;;;;;8.45;3.42;;;;;;;;;;4999053;28;20467;-69
2023/08/30 11:48:09;;;;;;;9.90;3.30;;;;;;;;;;4999013;28;20037;-68
2023/08/30 11:50:35;;;;;;;9.60;4.63;;;;;;;;;;4998916;28;20029;-71
2023/08/30 11:53:02;;;;;;;8.18;3.40;;;;;;;;;;5015299;28;20502;-73
2023/08/30 11:55:28;;;;;;;11.07;3.40;;;;;;;;;;5016251;28;20038;-68
2023/08/30 11:57:54;;;;;;;10.18;3.20;;;;;;;;;;5032903;28;20045;-68
2023/08/30 12:00:20;;;;;;;9.10;3.42;;;;;;;;;;5017327;28;20030;-68
2023/08/30 12:02:47;;;;;;;7.55;3.42;;;;;;;;;;5053342;28;20052;-68
2023/08/30 12:05:13;;;;;;;8.55;3.40;;;;;;;;;;5052404;28;20059;-68
2023/08/30 12:07:41;;;;;;;12.88;3.22;;;;;;;;;;5035625;28;20132;-68
2023/08/30 12:10:09;;;;;;;7.85;3.38;;;;;;;;;;5018986;28;20033;-67
2023/08/30 12:12:38;;;;;;;5.70;3.50;;;;;;;;;;5019393;28;20129;-68
2023/08/30 12:15:10;;;;;;;6.82;4.07;;;;;;;;;;5036335;28;20044;-68
2023/08/30 12:17:37;;;;;;;10.23;4.22;;;;;;;;;;5035401;28;20132;-68
2023/08/30 12:20:03;;;;;;;13.85;4.55;;;;;;;;;;5052148;28;20059;-69
2023/08/30 12:22:38;;;;;;;11.95;4.50;;;;;;;;;;5036056;28;20060;-68
2023/08/30 12:25:04;;;;;;;7.63;3.70;;;;;;;;;;5052069;28;20060;-69
2023/08/30 12:27:31;;;;;;;8.00;3.28;;;;;;;;;;5052280;28;20041;-67
2023/08/30 12:29:57;;;;;;;7.60;3.63;;;;;;;;;;5018810;28;20047;-66
2023/08/30 12:32:25;;;;;;;10.77;3.33;;;;;;;;;;5070623;28;20044;-66
2023/08/30 12:34:52;;;;;;;6.80;3.50;;;;;;;;;;5020988;28;20122;-69
2023/08/30 12:37:17;;;;;;;6.30;3.58;;;;;;;;;;5054585;28;20047;-67
2023/08/30 12:39:43;;;;;;;8.45;3.90;;;;;;;;;;5055314;28;20044;-68
2023/08/30 12:42:09;;;;;;;9.63;3.70;;;;;;;;;;5022332;28;20048;-66
2023/08/30 12:44:38;;;;;;;10.48;3.38;;;;;;;;;;5037811;28;20351;-67
2023/08/30 12:47:04;;;;;;;8.48;3.53;;;;;;;;;;5072409;28;20113;-73
2023/08/30 12:49:33;;;;;;;7.15;3.80;;;;;;;;;;5039579;28;20040;-66
2023/08/30 12:51:59;;;;;;;7.20;3.53;;;;;;;;;;5071116;28;20162;-65
2023/08/30 12:54:25;;;;;;;9.55;3.80;;;;;;;;;;5070414;28;20127;-65
2023/08/30 12:56:51;;;;;;;5.03;3.35;;;;;;;;;;5037617;28;20040;-66
2023/08/30 12:59:17;;;;;;;6.15;3.70;;;;;;;;;;5037358;28;20044;-67
2023/08/30 13:01:47;;;;;;;6.75;3.47;;;;;;;;;;5021052;28;20037;-66
2023/08/30 13:04:13;;;;;;;9.05;3.28;;;;;;;;;;5053904;28;20471;-66
2023/08/30 13:06:40;;;;;;;10.32;3.90;;;;;;;;;;5037300;28;20063;-66
2023/08/30 13:09:05;;;;;;;11.13;4.43;;;;;;;;;;5071422;28;20059;-66
2023/08/30 13:11:33;;;;;;;6.40;3.63;;;;;;;;;;5034484;28;20049;-67
2023/08/30 13:13:59;;;;;;;7.65;3.13;;;;;;;;;;5033648;28;20059;-66
2023/08/30 13:16:28;;;;;;;10.95;3.72;;;;;;;;;;5017528;28;20045;-67
2023/08/30 13:18:54;;;;;;;4.45;3.17;;;;;;;;;;5050387;28;20129;-66
2023/08/30 13:21:20;;;;;;;7.88;3.65;;;;;;;;;;5032931;28;20040;-66
2023/08/30 13:23:45;;;;;;;8.05;3.67;;;;;;;;;;5032258;28;20070;-66
2023/08/30 13:26:11;;;;;;;7.00;3.05;;;;;;;;;;5016847;28;20063;-66
2023/08/30 13:28:38;;;;;;;10.40;3.45;;;;;;;;;;5049618;28;20151;-66
2023/08/30 13:31:07;;;;;;;11.43;4.20;;;;;;;;;;5033093;28;20349;-66
2023/08/30 13:33:36;;;;;;;12.68;4.32;;;;;;;;;;5016923;28;20041;-66
2023/08/30 13:36:04;;;;;;;11.70;4.85;;;;;;;;;;5010739;28;20037;-68
2023/08/30 13:38:31;;;;;;;8.52;3.70;;;;;;;;;;5032799;28;20051;-66
2023/08/30 13:41:00;;;;;;;10.02;3.88;;;;;;;;;;5015429;28;20037;-67
2023/08/30 13:43:31;;;;;;;12.43;3.80;;;;;;;;;;5047886;28;20052;-67
2023/08/30 13:45:57;;;;;;;13.38;4.97;;;;;;;;;;5034861;28;20047;-68
2023/08/30 13:48:24;;;;;;;9.88;4.57;;;;;;;;;;5067916;28;20036;-66
2023/08/30 13:50:50;;;;;;;14.70;4.68;;;;;;;;;;5052818;28;20144;-67
2023/08/30 13:53:20;;;;;;;9.35;4.25;;;;;;;;;;5037233;28;20044;-69
2023/08/30 13:55:49;;;;;;;11.30;4.68;;;;;;;;;;5044311;28;20132;-66
2023/08/30 13:58:17;;;;;;;13.05;4.85;;;;;;;;;;5031919;28;20051;-69
2023/08/30 14:00:45;;;;;;;10.20;4.57;;;;;;;;;;5058680;28;20131;-66
2023/08/30 14:03:11;;;;;;;13.32;4.97;;;;;;;;;;5030573;28;20095;-66
2023/08/30 14:05:40;;;;;;;12.10;4.20;;;;;;;;;;5033120;28;20056;-68
2023/08/30 14:08:08;;;;;;;13.57;4.70;;;;;;;;;;5047205;28;20040;-67
2023/08/30 14:10:34;;;;;;;17.67;4.60;;;;;;;;;;5035787;28;20029;-67
2023/08/30 14:13:00;;;;;;;13.02;4.15;;;;;;;;;;5023137;28;20048;-67
2023/08/30 14:15:26;;;;;;;12.13;4.40;;;;;;;;;;5037356;28;20037;-66
2023/08/30 14:17:54;;;;;;;12.32;4.10;;;;;;;;;;5024043;28;20033;-69
2023/08/30 14:20:20;;;;;;;16.52;4.38;;;;;;;;;;5006927;28;20316;-67
2023/08/30 14:22:47;;;;;;;15.48;4.30;;;;;;;;;;5012430;28;20037;-67
2023/08/30 14:25:15;;;;;;;9.85;3.75;;;;;;;;;;5012416;28;20049;-66
2023/08/30 14:27:41;;;;;;;15.75;4.25;;;;;;;;;;5011114;28;20191;-66
2023/08/30 14:30:07;;;;;;;15.48;4.13;;;;;;;;;;5028642;28;20071;-69